Terminal Aerodrome Forecast
Issued by NWS Newport/Morehead City, NC

Home | Current Version | Previous Version | Text Only | Print | Product List | Glossary On
Versions: 1 2 3 4 5 6 7 8 9 10 11 12 13 14 15 16 17 18 19 20 21 22 23 24
000
FTUS42 KMHX 220544
TAFEWN
TAF
KEWN 220544Z 2206/2306 20004KT 6SM BR FEW008
      TEMPO 2208/2210 3SM BR OVC008
     FM221000 VRB03KT 2SM BR OVC003
     FM221500 21006KT P6SM BKN020
     FM221600 21008KT P6SM SCT050=

USA.gov is the U.S. government's official web portal to all federal, state and local government web resources and services.